Time;durP1;ratioP1;P1;durP2;ratioP2;P2;SDS_P1;SDS_P2;PMS_P1;PMS_P2;Temp;Humidity;BMP_temperature;BMP_pressure;BME280_temperature;BME280_humidity;BME280_pressure;Samples;Min_cycle;Max_cycle;Signal;HPM_P1;HPM_P2
2022/11/13 00:00:32;;;;;;;22.00;13.32;;;;;;;4.36;100.00;-77.57;1729692;82;21495;-60
2022/11/13 00:03:18;;;;;;;26.27;12.68;;;;;;;4.39;100.00;-242.27;1727444;82;21024;-61
2022/11/13 00:06:03;;;;;;;27.80;13.60;;;;;;;4.44;100.00;-736.64;1707098;82;21122;-61
2022/11/13 00:08:52;;;;;;;;;;;;;;;4.51;100.00;-1230.95;1709330;82;21559;-61
2022/11/13 00:11:37;;;;;;;24.23;13.08;;;;;;;4.54;100.00;-1725.41;1728737;82;21139;-61
2022/11/13 00:14:23;;;;;;;23.42;12.20;;;;;;;4.55;100.00;-2055.09;1701478;82;21031;-62
2022/11/13 00:17:09;;;;;;;21.35;11.50;;;;;;;4.55;100.00;-2055.11;1713456;82;21098;-62
2022/11/13 00:19:55;;;;;;;23.10;12.33;;;;;;;4.55;100.00;-1890.23;1717224;81;21091;-61
2022/11/13 00:22:44;;;;;;;22.35;12.35;;;;;;;4.52;100.00;-1560.63;1715921;82;21557;-61
2022/11/13 00:25:29;;;;;;;23.92;12.40;;;;;;;4.47;100.00;-1066.25;1694447;82;21138;-61
2022/11/13 00:28:14;;;;;;;23.73;12.98;;;;;;;4.42;100.00;-406.98;1706727;82;21278;-61
2022/11/13 00:31:03;;;;;;;23.90;12.37;;;;;;;4.38;100.00;-77.44;1707144;84;21031;-61
2022/11/13 00:33:48;;;;;;;23.62;12.88;;;;;;;4.35;100.00;252.16;1708071;82;21031;-62
2022/11/13 00:36:34;;;;;;;25.00;13.00;;;;;;;4.34;100.00;252.13;1705946;83;21109;-60
2022/11/13 00:39:20;;;;;;;23.10;13.22;;;;;;;4.33;100.00;252.05;1688162;84;21281;-62
2022/11/13 00:42:05;;;;;;;29.70;14.05;;;;;;;4.34;100.00;87.19;1709341;83;21051;-63
2022/11/13 00:44:50;;;;;;;24.77;13.72;;;;;;;4.32;100.00;87.05;1706724;83;25271;-62
2022/11/13 00:47:37;;;;;;;22.20;12.85;;;;;;;4.31;100.00;87.02;1712906;83;21082;-62
2022/11/13 00:50:22;;;;;;;;;;;;;;;4.35;100.00;-407.38;1712395;83;21097;-61
2022/11/13 00:53:07;;;;;;;28.10;15.00;;;;;;;4.40;100.00;-901.71;1710040;83;21136;-61
2022/11/13 00:55:52;;;;;;;29.48;14.33;;;;;;;4.48;100.00;-1231.10;1715864;83;21068;-58
2022/11/13 00:58:38;;;;;;;28.10;15.28;;;;;;;4.52;100.00;-1395.78;1715183;83;21104;-58
2022/11/13 01:01:23;;;;;;;29.95;15.72;;;;;;;4.58;100.00;-1560.37;1708830;83;21082;-58
2022/11/13 01:04:08;;;;;;;;;;;;;;;4.65;100.00;-1889.90;1730813;81;21099;-61
2022/11/13 01:06:54;;;;;;;30.00;16.50;;;;;;;4.71;100.00;-2219.45;1726207;82;23392;-61
2022/11/13 01:09:39;;;;;;;30.50;16.02;;;;;;;4.75;100.00;-2384.21;1707234;82;21066;-62
2022/11/13 01:12:24;;;;;;;29.80;16.12;;;;;;;4.81;100.00;-2713.84;1704629;82;21007;-60
2022/11/13 01:15:10;;;;;;;32.05;16.80;;;;;;;4.84;100.00;-2878.64;1723734;82;21024;-59
2022/11/13 01:17:55;;;;;;;30.57;16.10;;;;;;;4.87;100.00;-2878.59;1720103;82;24205;-59
2022/11/13 01:20:40;;;;;;;;;;;;;;;4.90;100.00;-2713.62;1708651;82;21195;-59
2022/11/13 01:23:25;;;;;;;35.08;16.75;;;;;;;4.91;100.00;-2878.52;1702491;82;20139;-59
2022/11/13 01:26:20;;;;;;;32.20;16.67;;;;;;;4.93;100.00;-3043.37;1723624;82;21075;-59
2022/11/13 01:29:06;;;;;;;35.00;18.02;;;;;;;4.97;100.00;-3208.21;1719036;82;21492;-59
2022/11/13 01:31:52;;;;;;;33.28;16.55;;;;;;;5.01;100.00;-3537.95;1714963;83;21054;-59
2022/11/13 01:34:37;;;;;;;;;;;;;;;5.04;100.00;-3867.71;1717459;83;21283;-60
2022/11/13 01:37:23;;;;;;;36.20;17.82;;;;;;;5.06;100.00;-4197.46;1716795;82;20193;-59
2022/11/13 01:40:11;;;;;;;36.30;18.40;;;;;;;5.07;100.00;-4032.58;1725120;82;21520;-60
2022/11/13 01:42:56;;;;;;;32.35;16.77;;;;;;;5.07;100.00;-3702.79;1729715;82;21099;-59
2022/11/13 01:45:59;;;;;;;;;;;;;;;5.07;100.00;-3537.89;1729013;81;21087;-59
2022/11/13 01:48:58;;;;;;;39.05;18.57;;;;;;;5.07;100.00;-3537.89;1715075;82;22010;-58
2022/11/13 01:51:51;;;;;;;34.15;17.67;;;;;;;5.09;100.00;-3537.87;1719649;81;21513;-58
2022/11/13 01:54:41;;;;;;;34.63;17.35;;;;;;;5.10;100.00;-3537.86;1703809;82;21432;-59
2022/11/13 01:57:28;;;;;;;39.53;18.52;;;;;;;5.10;100.00;-3867.68;1700442;83;21130;-59
2022/11/13 02:00:14;;;;;;;41.08;19.52;;;;;;;5.15;100.00;-4197.47;1701569;83;21102;-59
2022/11/13 02:02:59;;;;;;;37.60;18.52;;;;;;;5.16;100.00;-4527.26;1715007;82;21505;-59
2022/11/13 02:05:45;;;;;;;41.35;19.23;;;;;;;5.19;100.00;-4692.16;1726044;82;21075;-58
2022/11/13 02:08:30;;;;;;;;;;;;;;;5.20;100.00;-4527.27;1726646;82;21044;-58
2022/11/13 02:11:16;;;;;;;37.48;18.52;;;;;;;5.18;100.00;-4197.47;1725168;82;20223;-62
2022/11/13 02:14:02;;;;;;;34.48;17.77;;;;;;;5.18;100.00;-3867.64;1706433;82;21154;-58
2022/11/13 02:16:51;;;;;;;38.70;18.82;;;;;;;5.16;100.00;-3537.79;1726779;81;21090;-59
2022/11/13 02:19:42;;;;;;;38.15;18.25;;;;;;;5.17;100.00;-3372.85;1702996;82;21066;-59
2022/11/13 02:22:56;;;;;;;42.50;20.88;;;;;;;5.16;100.00;-3207.91;1705682;82;21015;-59
2022/11/13 02:25:42;;;;;;;41.98;19.10;;;;;;;5.15;100.00;-3207.92;1705208;82;21651;-58
2022/11/13 02:28:29;;;;;;;43.58;19.92;;;;;;;5.18;100.00;-3372.84;1706924;82;20987;-58
2022/11/13 02:31:15;;;;;;;43.60;21.12;;;;;;;5.20;100.00;-3537.76;1704521;82;22145;-59
2022/11/13 02:34:02;;;;;;;45.25;21.17;;;;;;;5.22;100.00;-3867.63;1702410;82;21508;-58
2022/11/13 02:36:49;;;;;;;48.92;21.42;;;;;;;5.24;100.00;-4032.55;1705858;82;21031;-59
2022/11/13 02:39:35;;;;;;;42.80;21.70;;;;;;;5.24;100.00;-4197.47;1700621;84;21047;-58
2022/11/13 02:42:21;;;;;;;;;;;;;;;5.26;100.00;-4197.47;1704694;83;21166;-58
2022/11/13 02:45:08;;;;;;;44.18;20.75;;;;;;;5.26;100.00;-4032.54;1705245;82;21269;-60
2022/11/13 02:47:53;;;;;;;43.15;20.37;;;;;;;5.25;100.00;-4197.47;1678501;83;38530;-58
2022/11/13 02:50:40;;;;;;;43.87;21.25;;;;;;;5.27;100.00;-4197.47;1707062;82;21107;-58
2022/11/13 02:53:25;;;;;;;45.35;21.33;;;;;;;5.28;100.00;-4032.54;1701570;82;21102;-60
2022/11/13 02:56:11;;;;;;;39.53;20.05;;;;;;;5.29;100.00;-4032.54;1705909;82;21102;-58
2022/11/13 02:58:58;;;;;;;45.55;20.72;;;;;;;5.29;100.00;-4032.54;1706071;82;21895;-59
2022/11/13 03:01:45;;;;;;;47.45;22.20;;;;;;;5.30;100.00;-4032.53;1702554;83;21046;-61
2022/11/13 03:04:31;;;;;;;46.23;21.60;;;;;;;5.31;100.00;-3867.58;1704575;82;21091;-61
2022/11/13 03:07:17;;;;;;;46.60;20.97;;;;;;;5.31;100.00;-3867.58;1701624;82;21050;-61
2022/11/13 03:10:04;;;;;;;46.63;22.00;;;;;;;5.32;100.00;-3867.57;1711520;82;20970;-61
2022/11/13 03:12:49;;;;;;;43.45;21.20;;;;;;;5.32;100.00;-3867.57;1726844;82;21246;-61
2022/11/13 03:15:34;;;;;;;50.17;21.85;;;;;;;5.30;100.00;-3702.63;1729372;82;21114;-61
2022/11/13 03:18:19;;;;;;;;;;;;;;;5.29;100.00;-3537.67;1732235;82;21048;-61
2022/11/13 03:21:09;;;;;;;44.33;20.23;;;;;;;5.26;100.00;-3207.76;1723855;82;20181;-60
2022/11/13 03:23:54;;;;;;;42.23;20.12;;;;;;;5.23;100.00;-2877.86;1721133;82;21031;-60
2022/11/13 03:26:40;;;;;;;50.98;22.42;;;;;;;5.21;100.00;-2712.92;1701027;82;21143;-61
2022/11/13 03:29:26;;;;;;;50.35;22.55;;;;;;;5.21;100.00;-2547.93;1710910;82;21071;-62
2022/11/13 03:32:11;;;;;;;;;;;;;;;5.21;100.00;-2547.93;1733262;82;21075;-62
2022/11/13 03:34:56;;;;;;;45.50;21.45;;;;;;;5.23;100.00;-2712.87;1700938;82;20138;-61
2022/11/13 03:37:41;;;;;;;;;;;;;;;5.23;100.00;-2712.87;1709246;82;21066;-61
2022/11/13 03:40:27;;;;;;;40.90;20.08;;;;;;;5.20;100.00;-2547.95;1704411;82;21410;-60
2022/11/13 03:43:12;;;;;;;45.28;21.02;;;;;;;5.19;100.00;-2382.98;1732554;82;21038;-62
2022/11/13 03:45:57;;;;;;;47.60;21.82;;;;;;;5.16;100.00;-2383.04;1702794;82;21079;-61
2022/11/13 03:48:47;;;;;;;;;;;;;;;5.18;100.00;-2383.00;1716590;82;21035;-61
2022/11/13 03:51:33;;;;;;;42.43;20.17;;;;;;;5.19;100.00;-2382.98;1727645;82;20199;-58
2022/11/13 03:54:18;;;;;;;45.60;21.10;;;;;;;5.17;100.00;-2383.03;1729896;82;21083;-58
2022/11/13 03:57:04;;;;;;;54.10;23.00;;;;;;;5.18;100.00;-2383.01;1727994;82;21629;-59
2022/11/13 03:59:49;;;;;;;47.85;22.40;;;;;;;5.18;100.00;-2383.01;1707220;82;21520;-59
2022/11/13 04:02:35;;;;;;;43.87;20.97;;;;;;;5.18;100.00;-2548.00;1723374;82;21016;-59
2022/11/13 04:05:21;;;;;;;47.35;22.17;;;;;;;5.20;100.00;-2547.95;1725621;82;20989;-58
2022/11/13 04:08:06;;;;;;;47.48;20.95;;;;;;;5.20;100.00;-2382.95;1708983;82;21119;-58
2022/11/13 04:10:51;;;;;;;46.53;22.48;;;;;;;5.22;100.00;-2382.88;1721356;82;21118;-59
2022/11/13 04:13:39;;;;;;;49.10;20.80;;;;;;;5.24;100.00;-2382.84;1707348;82;21063;-59
2022/11/13 04:16:25;;;;;;;46.98;21.25;;;;;;;5.24;100.00;-2382.82;1703596;82;21102;-58
2022/11/13 04:19:13;;;;;;;42.93;20.88;;;;;;;5.25;100.00;-2382.80;1710874;82;21432;-58
2022/11/13 04:21:59;;;;;;;47.65;21.33;;;;;;;5.26;100.00;-2382.78;1725309;82;21234;-59
2022/11/13 04:24:45;;;;;;;43.60;21.20;;;;;;;5.27;100.00;-2382.75;1709188;82;21075;-60
2022/11/13 04:27:30;;;;;;;45.60;21.60;;;;;;;5.29;100.00;-2382.69;1704297;82;21066;-58
2022/11/13 04:30:17;;;;;;;43.92;21.90;;;;;;;5.31;100.00;-2382.63;1700170;83;21050;-58
2022/11/13 04:33:02;;;;;;;45.52;21.77;;;;;;;5.33;100.00;-2547.62;1707180;82;21098;-58
2022/11/13 04:35:48;;;;;;;49.23;21.37;;;;;;;5.33;100.00;-2712.63;1706189;82;21881;-59
2022/11/13 04:38:33;;;;;;;46.42;21.50;;;;;;;5.37;100.00;-2547.50;1701399;83;21449;-58
2022/11/13 04:44:24;;;;;;;46.93;21.93;;;;;;;5.36;100.00;-2382.48;1707147;82;21568;-59
2022/11/13 04:47:09;;;;;;;44.13;20.80;;;;;;;5.37;100.00;-2052.34;1707027;82;21555;-60
2022/11/13 04:49:54;;;;;;;50.28;23.00;;;;;;;5.37;100.00;-1722.19;1721751;82;21243;-58
2022/11/13 04:52:39;;;;;;;50.03;22.95;;;;;;;5.36;100.00;-1061.88;1714279;82;26732;-60
2022/11/13 04:55:24;;;;;;;45.05;22.82;;;;;;;5.34;100.00;-401.46;1705788;82;21098;-59
2022/11/13 04:58:09;;;;;;;43.83;22.80;;;;;;;5.30;100.00;258.87;1703853;82;21707;-58
2022/11/13 05:00:54;;;;;;;50.48;22.70;;;;;;;5.30;100.00;754.40;1703640;82;27456;-59
2022/11/13 05:03:39;;;;;;;48.38;21.40;;;;;;;5.32;100.00;1084.96;1707199;82;22065;-59
2022/11/13 05:06:24;;;;;;;;;;;;;;;5.35;100.00;920.01;1708978;82;21098;-58
2022/11/13 05:09:11;;;;;;;44.70;20.82;;;;;;;5.39;100.00;589.88;1703222;82;20193;-60
2022/11/13 05:11:57;;;;;;;43.83;20.90;;;;;;;5.47;100.00;260.04;1701965;82;20987;-59
2022/11/13 05:14:44;;;;;;;47.08;22.07;;;;;;;5.56;100.00;-69.74;1698652;82;21039;-59
2022/11/13 05:17:29;;;;;;;46.63;22.27;;;;;;;5.61;100.00;-234.62;1707092;82;21170;-59
2022/11/13 05:20:16;;;;;;;43.05;22.67;;;;;;;5.66;100.00;-69.06;1706881;82;21046;-59
2022/11/13 05:23:02;;;;;;;46.77;21.42;;;;;;;5.70;100.00;261.73;1703179;82;21552;-58
2022/11/13 05:25:48;;;;;;;44.88;22.80;;;;;;;5.77;100.00;262.17;1702192;82;21509;-60
2022/11/13 05:28:34;;;;;;;51.15;22.37;;;;;;;5.85;100.00;428.07;1706977;83;21047;-59
2022/11/13 05:31:20;;;;;;;54.45;23.07;;;;;;;5.93;100.00;428.68;1706739;82;21247;-59
2022/11/13 05:34:06;;;;;;;48.68;22.65;;;;;;;6.00;100.00;594.57;1701554;82;21071;-61
2022/11/13 05:36:51;;;;;;;44.80;22.93;;;;;;;6.10;100.00;1091.49;1704614;83;21134;-58
2022/11/13 05:39:38;;;;;;;52.27;23.20;;;;;;;6.17;100.00;1588.44;1704293;82;21524;-59
2022/11/13 05:42:23;;;;;;;;;;;;;;;6.18;100.00;3409.11;1703750;83;21383;-60
2022/11/13 05:45:09;;;;;;;45.67;21.97;;;;;;;6.14;100.00;7052.64;1709843;82;21333;-59
2022/11/13 05:47:56;;;;;;;41.73;21.73;;;;;;;6.16;100.00;9705.69;1729117;82;21122;-59
2022/11/13 05:50:43;;;;;;;43.55;22.45;;;;;;;6.15;100.00;12858.34;1712234;82;21074;-59
2022/11/13 05:53:28;;;;;;;47.10;21.87;;;;;;;6.13;100.00;16345.92;1720486;82;21011;-59
2022/11/13 05:56:19;;;;;;;41.68;21.87;;;;;;;6.11;100.00;24165.34;1725070;82;21079;-59
2022/11/13 05:59:05;;;;;;;42.35;21.70;;;;;;;6.11;100.00;24165.34;1729679;82;21646;-59
2022/11/13 06:01:50;;;;;;;43.23;20.95;;;;;;;6.19;100.00;26168.64;1729833;82;21067;-59
2022/11/13 06:04:35;;;;;;;;;;;;;;;6.25;100.00;28840.17;1723599;82;21524;-59
2022/11/13 06:07:20;;;;;;;55.78;23.50;;;;;;;6.31;100.00;30846.15;1729401;82;20606;-60
2022/11/13 06:10:08;;;;;;;61.77;22.50;;;;;;;6.37;100.00;33856.64;1722155;82;21090;-59
2022/11/13 06:12:54;;;;;;;65.00;22.35;;;;;;;6.48;100.00;36036.73;1714313;82;21132;-61
2022/11/13 06:15:41;;;;;;;77.40;22.17;;;;;;;6.53;100.00;39889.74;1729673;82;21145;-60
2022/11/13 06:18:26;;;;;;;;;;;;;;;6.61;100.00;45762.65;1726493;82;21118;-61
2022/11/13 06:21:19;;;;;;;93.42;25.32;;;;;;;6.65;100.00;54670.99;1720470;82;20453;-61
2022/11/13 06:24:04;;;;;;;87.80;26.45;;;;;;;6.68;100.00;62759.18;1713567;82;21058;-62
2022/11/13 06:26:50;;;;;;;68.90;23.67;;;;;;;6.73;100.00;70870.26;1705707;82;22041;-59
2022/11/13 06:29:35;;;;;;;58.83;21.68;;;;;;;6.82;100.00;76974.23;1706977;82;21496;-61
2022/11/13 06:32:21;;;;;;;58.78;22.35;;;;;;;6.90;100.00;86993.56;1701484;82;21118;-58
2022/11/13 06:35:08;;;;;;;52.43;22.32;;;;;;;6.97;100.00;99942.72;1705019;82;21071;-59
2022/11/13 06:37:56;;;;;;;54.40;20.95;;;;;;;7.09;100.00;138214.44;1705855;82;21039;-60
2022/11/13 06:40:42;;;;;;;50.90;21.27;;;;;;;7.09;100.00;138214.44;1701282;83;21102;-59
2022/11/13 06:43:27;;;;;;;37.95;19.52;;;;;;;7.17;100.00;149461.44;1706938;82;21627;-59
2022/11/13 06:46:21;;;;;;;54.00;21.55;;;;;;;7.26;100.00;149482.17;1706837;82;21106;-62
2022/11/13 06:49:07;;;;;;;57.60;20.92;;;;;;;7.29;100.00;149489.94;1706751;82;21070;-58
2022/11/13 06:51:52;;;;;;;63.60;21.60;;;;;;;7.30;100.00;149492.53;1701849;82;21511;-58
2022/11/13 06:54:38;;;;;;;73.83;21.27;;;;;;;7.38;100.00;149513.22;1706926;82;21102;-60
2022/11/13 06:57:23;;;;;;;77.30;21.07;;;;;;;7.41;100.00;149521.03;1701711;82;21055;-58
2022/11/13 07:00:11;;;;;;;67.82;20.43;;;;;;;7.42;100.00;149522.30;1718659;82;21150;-59
2022/11/13 07:02:57;;;;;;;70.17;21.10;;;;;;;7.47;100.00;149533.95;1699114;83;21090;-59
2022/11/13 07:05:42;;;;;;;;;;;;;;;7.51;100.00;149544.31;1709717;82;21050;-58
2022/11/13 07:08:27;;;;;;;43.90;17.85;;;;;;;7.56;100.00;149557.25;1703122;82;21150;-59
2022/11/13 07:11:16;;;;;;;41.18;17.98;;;;;;;7.59;100.00;149566.33;1719287;82;21024;-58
2022/11/13 07:14:02;;;;;;;31.33;16.80;;;;;;;7.62;100.00;149572.77;1705504;82;21547;-62
2022/11/13 07:16:47;;;;;;;33.78;17.85;;;;;;;7.63;100.00;149575.41;1707282;82;21083;-62
2022/11/13 07:19:32;;;;;;;31.68;17.95;;;;;;;7.68;100.00;149588.34;1704394;82;21418;-60
2022/11/13 07:22:18;;;;;;;32.93;17.20;;;;;;;7.73;100.00;149601.28;1704864;82;21218;-60
2022/11/13 07:25:06;;;;;;;30.82;17.40;;;;;;;7.81;100.00;149620.72;1704299;82;21086;-61
2022/11/13 07:27:52;;;;;;;29.63;16.75;;;;;;;7.87;100.00;149634.97;1705089;82;21784;-60
2022/11/13 07:30:38;;;;;;;32.35;16.93;;;;;;;7.96;100.00;149658.27;1699302;82;21086;-62
2022/11/13 07:33:24;;;;;;;29.20;16.77;;;;;;;8.05;100.00;149680.28;1705002;82;21071;-60
2022/11/13 07:36:09;;;;;;;;;;;;;;;8.14;100.00;149702.31;1722547;82;21787;-60
2022/11/13 07:38:54;;;;;;;31.10;15.20;;;;;;;8.21;100.00;149719.16;1729514;82;20176;-59
2022/11/13 07:41:39;;;;;;;27.37;16.23;;;;;;;8.31;100.00;149745.05;1730080;82;21063;-60
2022/11/13 07:44:25;;;;;;;28.45;16.48;;;;;;;8.40;100.00;149767.08;1728633;82;21127;-60
2022/11/13 07:47:11;;;;;;;29.82;16.75;;;;;;;8.51;100.00;149795.66;1723766;82;21095;-60
2022/11/13 07:50:14;;;;;;;26.55;15.78;;;;;;;8.59;100.00;149815.05;1730154;82;21047;-60
2022/11/13 07:53:02;;;;;;;29.45;15.70;;;;;;;8.67;100.00;149834.48;1729853;82;21017;-59
2022/11/13 07:55:47;;;;;;;25.55;16.35;;;;;;;8.79;100.00;149865.61;1723569;82;21039;-61
2022/11/13 07:58:34;;;;;;;28.15;16.42;;;;;;;8.91;100.00;149894.09;1717398;82;21099;-60
2022/11/13 08:01:19;;;;;;;27.58;15.30;;;;;;;9.02;100.00;149922.64;1721082;82;21110;-61
2022/11/13 08:04:04;;;;;;;;;;;;;;;9.15;100.00;149956.31;1726332;82;22136;-61
2022/11/13 08:06:51;;;;;;;30.92;16.67;;;;;;;9.26;100.00;149982.27;1726595;82;20208;-60
2022/11/13 08:09:46;;;;;;;33.18;17.07;;;;;;;9.36;100.00;150008.17;1716855;82;21051;-60
2022/11/13 08:12:29;;;;;;;28.80;17.12;;;;;;;9.46;100.00;150034.13;1723122;82;21297;-61
2022/11/13 08:15:15;;;;;;;30.15;17.05;;;;;;;9.58;100.00;150062.62;1704432;82;21111;-59
2022/11/13 08:18:01;;;;;;;28.25;16.10;;;;;;;9.68;100.00;150088.59;1707032;82;21208;-60
2022/11/13 08:20:46;;;;;;;28.40;16.85;;;;;;;9.77;100.00;150109.33;1705608;82;21028;-61
2022/11/13 08:23:31;;;;;;;;;;;;;;;9.86;100.00;150132.70;1709509;82;21079;-61
2022/11/13 08:26:17;;;;;;;34.18;17.35;;;;;;;9.91;100.00;150145.66;1706934;82;20446;-60
2022/11/13 08:29:02;;;;;;;29.75;17.50;;;;;;;9.96;100.00;150157.34;1704422;82;21055;-61
2022/11/13 08:31:47;;;;;;;32.17;17.25;;;;;;;10.03;100.00;150175.48;1707265;82;21860;-62
2022/11/13 08:34:32;;;;;;;28.00;16.02;;;;;;;10.11;100.00;150196.22;1703185;83;24678;-61
2022/11/13 08:37:17;;;;;;;29.65;17.37;;;;;;;10.16;100.00;150207.91;1668228;84;21497;-60
2022/11/13 08:40:03;;;;;;;;;;;;;;;10.22;100.00;150222.19;1708907;83;21055;-60
2022/11/13 08:42:49;;;;;;;28.35;16.52;;;;;;;10.28;100.00;150239.08;1708452;83;20165;-60
2022/11/13 08:45:34;;;;;;;;;;;;;;;10.35;100.00;150254.63;1677380;83;21581;-61
2022/11/13 08:48:26;;;;;;;30.10;16.75;;;;;;;10.37;100.00;150261.08;1705987;83;20386;-61
2022/11/13 08:51:10;;;;;;;32.15;16.30;;;;;;;10.45;100.00;150281.92;1697834;82;21082;-61
2022/11/13 08:53:55;;;;;;;30.57;16.73;;;;;;;10.47;100.00;150285.78;1707235;82;21050;-60
2022/11/13 08:56:40;;;;;;;29.10;16.12;;;;;;;10.49;100.00;150290.97;1707228;83;25571;-58
2022/11/13 08:59:26;;;;;;;27.67;15.28;;;;;;;10.54;100.00;150303.98;1706385;83;21982;-59
2022/11/13 09:02:14;;;;;;;30.48;16.77;;;;;;;10.61;100.00;150320.88;1710214;83;20992;-60
2022/11/13 09:04:59;;;;;;;29.72;15.95;;;;;;;10.65;100.00;150329.92;1708441;83;20948;-60
2022/11/13 09:07:45;;;;;;;28.60;17.05;;;;;;;10.68;99.94;150337.70;1706158;83;21476;-60
2022/11/13 09:10:31;;;;;;;29.05;17.02;;;;;;;10.73;99.80;150350.72;1706186;82;21087;-58
2022/11/13 09:13:17;;;;;;;29.55;16.73;;;;;;;10.79;99.41;150366.28;1708610;83;21120;-58
2022/11/13 09:16:03;;;;;;;;;;;;;;;10.85;98.82;150381.84;1704946;83;21074;-62
2022/11/13 09:18:49;;;;;;;31.45;16.40;;;;;;;10.92;98.73;150397.41;1706770;82;20208;-62
2022/11/13 09:21:34;;;;;;;27.95;16.65;;;;;;;11.00;98.54;150418.20;1708241;82;21505;-62
2022/11/13 09:24:19;;;;;;;29.87;16.10;;;;;;;11.09;97.42;150441.55;1710875;82;21054;-64
2022/11/13 09:27:05;;;;;;;29.50;16.07;;;;;;;11.14;96.70;150454.52;1697768;83;21145;-62
2022/11/13 09:29:51;;;;;;;;;;;;;;;11.16;96.05;150459.75;1687643;83;21056;-62
2022/11/13 09:32:37;;;;;;;;;;;;;;;11.18;96.03;150464.94;1693916;84;20182;-62
2022/11/13 09:35:35;;;;;;;28.90;17.20;;;;;;;11.25;95.67;150480.50;1703244;82;20691;-63
2022/11/13 09:38:20;;;;;;;29.18;15.95;;;;;;;11.30;95.11;150494.80;1703429;82;21110;-63
2022/11/13 09:41:13;;;;;;;29.92;17.17;;;;;;;11.36;94.57;150509.05;1696763;83;21124;-63
2022/11/13 09:44:02;;;;;;;28.87;16.32;;;;;;;11.42;94.18;150524.66;1674216;84;21055;-62
2022/11/13 09:47:04;;;;;;;29.52;16.57;;;;;;;11.47;93.67;150536.31;1701564;83;21050;-62
2022/11/13 09:50:00;;;;;;;25.27;16.48;;;;;;;11.50;93.04;150542.81;1707482;84;21055;-63
2022/11/13 09:52:45;;;;;;;31.23;18.48;;;;;;;11.55;92.59;150555.80;1706937;83;21624;-63
2022/11/13 09:55:35;;;;;;;31.95;18.48;;;;;;;11.55;92.00;150557.12;1706291;83;22107;-63
2022/11/13 09:58:41;;;;;;;31.50;18.00;;;;;;;11.57;91.86;150560.98;1729600;82;21062;-63
2022/11/13 10:01:49;;;;;;;35.95;18.17;;;;;;;11.59;91.86;150566.17;1729697;82;21027;-63
2022/11/13 10:04:58;;;;;;;32.05;17.87;;;;;;;11.63;92.14;150576.61;1729014;82;21540;-64
2022/11/13 10:08:07;;;;;;;30.48;18.27;;;;;;;11.71;91.77;150597.38;1726570;82;21036;-62
2022/11/13 10:11:22;;;;;;;33.95;18.62;;;;;;;11.78;91.56;150612.94;1714337;82;21303;-64
2022/11/13 10:14:22;;;;;;;29.77;18.05;;;;;;;11.79;90.78;150616.86;1702871;82;21063;-63
2022/11/13 10:17:22;;;;;;;29.00;17.60;;;;;;;11.75;90.59;150607.75;1709669;82;21053;-63
2022/11/13 10:20:23;;;;;;;31.07;18.37;;;;;;;11.79;90.50;150615.53;1706049;83;21064;-63
2022/11/13 10:23:17;;;;;;;30.72;18.73;;;;;;;11.78;89.93;150612.94;1706000;84;21316;-64
2022/11/13 10:26:14;;;;;;;32.93;18.30;;;;;;;11.78;89.94;150614.25;1706210;83;21132;-61
2022/11/13 10:29:16;;;;;;;30.95;17.92;;;;;;;11.80;89.53;150618.12;1706965;82;21097;-60
2022/11/13 10:32:20;;;;;;;35.80;19.90;;;;;;;11.80;89.46;150618.12;1709368;82;21087;-61
2022/11/13 10:35:20;;;;;;;30.85;17.60;;;;;;;11.73;89.26;150602.56;1705461;82;21070;-60
2022/11/13 10:38:38;;;;;;;33.40;18.50;;;;;;;11.73;89.29;150602.56;1687965;83;21095;-60
2022/11/13 10:41:24;;;;;;;33.50;18.62;;;;;;;11.73;89.51;150602.56;1686589;84;21461;-60
2022/11/13 10:44:29;;;;;;;34.20;20.15;;;;;;;11.75;89.74;150607.75;1689947;83;21126;-63
2022/11/13 10:47:18;;;;;;;38.10;20.25;;;;;;;11.79;89.75;150615.53;1690696;83;21121;-61
2022/11/13 10:50:27;;;;;;;37.30;20.55;;;;;;;11.81;89.52;150620.72;1690085;83;21083;-62
2022/11/13 10:53:18;;;;;;;30.75;18.50;;;;;;;11.83;89.33;150625.97;1697315;84;21110;-62
2022/11/13 10:56:15;;;;;;;38.85;20.32;;;;;;;11.85;89.27;150631.16;1729597;82;21674;-60
2022/11/13 10:59:17;;;;;;;38.70;22.13;;;;;;;11.83;88.67;150625.97;1712478;82;21047;-60
2022/11/13 11:02:22;;;;;;;40.50;21.05;;;;;;;11.80;88.77;150618.12;1726821;82;21560;-59
2022/11/13 11:05:21;;;;;;;37.30;19.10;;;;;;;11.76;88.75;150609.06;1723888;82;21044;-60
2022/11/13 11:08:09;;;;;;;37.40;18.55;;;;;;;11.74;89.37;150605.16;1721732;82;21463;-60
2022/11/13 11:14:33;;;;;;;32.70;18.45;;;;;;;11.83;89.08;150625.97;1707513;83;21088;-60
2022/11/13 11:17:18;;;;;;;31.87;17.77;;;;;;;11.83;88.65;150625.97;1728414;82;21082;-60
2022/11/13 11:20:30;;;;;;;34.35;17.82;;;;;;;11.79;88.49;150615.53;1729813;82;21121;-61
2022/11/13 11:23:42;;;;;;;30.30;17.12;;;;;;;11.80;88.60;150619.45;1718486;82;21517;-60
2022/11/13 11:26:38;;;;;;;30.25;17.05;;;;;;;11.86;88.60;150635.03;1702666;83;21909;-60
2022/11/13 11:30:10;;;;;;;27.27;15.98;;;;;;;11.89;88.16;150641.53;1705374;82;21063;-60
2022/11/13 11:33:02;;;;;;;24.45;14.80;;;;;;;11.83;87.79;150625.97;1700238;83;21051;-61
2022/11/13 11:36:17;;;;;;;24.67;14.55;;;;;;;11.57;87.56;150560.98;1697525;83;21430;-61
2022/11/13 11:39:30;;;;;;;24.27;12.95;;;;;;;11.36;88.31;150509.05;1706990;82;21083;-59
2022/11/13 11:42:27;;;;;;;22.40;12.47;;;;;;;11.27;89.34;150485.69;1714606;82;21146;-59
2022/11/13 11:45:33;;;;;;;21.20;12.30;;;;;;;11.25;89.87;150481.78;1726777;82;21077;-59
2022/11/13 11:48:22;;;;;;;;;;;;;;;11.25;89.93;150480.50;1732603;82;21027;-60
2022/11/13 11:51:27;;;;;;;17.75;10.43;;;;;;;11.18;89.96;150464.94;1723610;82;20404;-59
2022/11/13 11:54:36;;;;;;;16.62;9.90;;;;;;;11.12;90.26;150449.33;1729948;82;21071;-58
2022/11/13 11:57:50;;;;;;;18.55;10.53;;;;;;;11.07;90.95;150435.08;1726094;82;21736;-59
2022/11/13 12:00:37;;;;;;;14.95;9.88;;;;;;;11.03;91.54;150427.25;1719639;82;21402;-59
2022/11/13 12:03:40;;;;;;;16.70;9.95;;;;;;;11.03;91.91;150425.98;1724277;82;21098;-59
2022/11/13 12:06:40;;;;;;;15.28;9.98;;;;;;;10.98;92.12;150413.00;1705613;83;21051;-59
2022/11/13 12:09:32;;;;;;;13.98;9.10;;;;;;;10.97;92.79;150410.42;1708479;82;21082;-58
2022/11/13 12:12:26;;;;;;;18.73;11.38;;;;;;;10.97;92.68;150410.42;1712203;82;21996;-59
2022/11/13 12:15:29;;;;;;;18.25;10.50;;;;;;;10.95;92.77;150406.50;1688857;83;21020;-58
2022/11/13 12:18:38;;;;;;;16.10;9.13;;;;;;;10.93;92.98;150400.00;1706970;82;21553;-59
2022/11/13 12:21:42;;;;;;;14.07;8.23;;;;;;;10.91;92.89;150394.80;1710157;82;21071;-58
2022/11/13 12:25:06;;;;;;;14.87;10.03;;;;;;;10.87;92.98;150387.02;1718540;82;21091;-59
2022/11/13 12:28:05;;;;;;;20.27;9.95;;;;;;;10.83;93.42;150376.66;1729311;82;22699;-59
2022/11/13 12:31:38;;;;;;;21.20;10.05;;;;;;;10.80;94.00;150368.87;1721717;82;21362;-59
2022/11/13 12:34:43;;;;;;;16.25;9.08;;;;;;;10.79;94.43;150364.95;1706790;82;21700;-60
2022/11/13 12:37:58;;;;;;;20.57;9.65;;;;;;;10.79;94.81;150366.28;1722366;82;21581;-59
2022/11/13 12:41:16;;;;;;;16.12;8.65;;;;;;;10.78;94.93;150363.69;1709706;83;21066;-58
2022/11/13 12:44:24;;;;;;;13.93;8.90;;;;;;;10.75;94.78;150355.91;1711456;82;21102;-59
2022/11/13 12:47:09;;;;;;;14.90;8.28;;;;;;;10.70;94.76;150344.20;1708435;82;21054;-59
2022/11/13 12:50:04;;;;;;;;;;;;;;;10.66;95.15;150332.52;1709630;82;21468;-59
2022/11/13 12:53:03;;;;;;;12.18;7.80;;;;;;;10.61;95.63;150320.88;1729890;82;20542;-60
2022/11/13 12:56:01;;;;;;;14.85;8.85;;;;;;;10.57;96.05;150311.77;1727465;82;21536;-59
2022/11/13 12:59:05;;;;;;;13.32;8.15;;;;;;;10.57;96.25;150311.77;1722255;82;21231;-59
2022/11/13 13:01:57;;;;;;;16.70;8.88;;;;;;;10.55;96.42;150306.58;1701409;82;21098;-59
2022/11/13 13:05:14;;;;;;;14.50;9.35;;;;;;;10.52;96.62;150298.80;1705304;82;21079;-59
2022/11/13 13:08:26;;;;;;;12.73;8.30;;;;;;;10.49;96.78;150290.97;1703734;82;21043;-59
2022/11/13 13:11:27;;;;;;;16.15;9.38;;;;;;;10.43;96.88;150276.73;1724039;82;21043;-60
2022/11/13 13:14:26;;;;;;;18.00;8.93;;;;;;;10.37;97.19;150259.81;1716784;82;21725;-58